sensor_id;sensor_type;location;lat;lon;timestamp;P1;durP1;ratioP1;P2;durP2;ratioP2
3918;SDS011;1974;48.670;8.994;2023-06-24T00:00:47;2.40;;;1.50;;
3918;SDS011;1974;48.670;8.994;2023-06-24T00:03:17;2.50;;;1.37;;
3918;SDS011;1974;48.670;8.994;2023-06-24T00:05:45;4.03;;;1.97;;
3918;SDS011;1974;48.670;8.994;2023-06-24T00:08:14;4.27;;;1.50;;
3918;SDS011;1974;48.670;8.994;2023-06-24T00:10:42;2.10;;;1.27;;
3918;SDS011;1974;48.670;8.994;2023-06-24T00:13:09;2.57;;;1.57;;
3918;SDS011;1974;48.670;8.994;2023-06-24T00:15:36;3.43;;;2.20;;
3918;SDS011;1974;48.670;8.994;2023-06-24T00:18:07;2.17;;;1.50;;
3918;SDS011;1974;48.670;8.994;2023-06-24T00:20:34;3.27;;;2.00;;
3918;SDS011;1974;48.670;8.994;2023-06-24T00:23:03;2.03;;;1.90;;
3918;SDS011;1974;48.670;8.994;2023-06-24T00:25:30;3.77;;;1.73;;
3918;SDS011;1974;48.670;8.994;2023-06-24T00:27:57;3.37;;;1.97;;
3918;SDS011;1974;48.670;8.994;2023-06-24T00:30:24;4.60;;;1.70;;
3918;SDS011;1974;48.670;8.994;2023-06-24T00:32:52;4.17;;;1.50;;
3918;SDS011;1974;48.670;8.994;2023-06-24T00:35:18;2.50;;;1.60;;
3918;SDS011;1974;48.670;8.994;2023-06-24T00:37:45;2.50;;;1.50;;
3918;SDS011;1974;48.670;8.994;2023-06-24T00:40:13;7.83;;;2.07;;
3918;SDS011;1974;48.670;8.994;2023-06-24T00:42:42;4.40;;;1.80;;
3918;SDS011;1974;48.670;8.994;2023-06-24T00:45:10;3.20;;;2.00;;
3918;SDS011;1974;48.670;8.994;2023-06-24T00:47:37;2.90;;;1.60;;
3918;SDS011;1974;48.670;8.994;2023-06-24T00:50:05;5.47;;;1.90;;
3918;SDS011;1974;48.670;8.994;2023-06-24T00:52:32;2.30;;;1.50;;
3918;SDS011;1974;48.670;8.994;2023-06-24T00:55:01;1.93;;;1.70;;
3918;SDS011;1974;48.670;8.994;2023-06-24T00:57:30;3.60;;;1.90;;
3918;SDS011;1974;48.670;8.994;2023-06-24T00:59:57;5.57;;;2.10;;
3918;SDS011;1974;48.670;8.994;2023-06-24T01:02:29;1.83;;;1.37;;
3918;SDS011;1974;48.670;8.994;2023-06-24T01:04:57;1.83;;;1.20;;
3918;SDS011;1974;48.670;8.994;2023-06-24T01:07:24;2.17;;;1.77;;
3918;SDS011;1974;48.670;8.994;2023-06-24T01:09:51;5.93;;;2.23;;
3918;SDS011;1974;48.670;8.994;2023-06-24T01:12:18;3.30;;;1.50;;
3918;SDS011;1974;48.670;8.994;2023-06-24T01:14:46;3.13;;;1.87;;
3918;SDS011;1974;48.670;8.994;2023-06-24T01:17:14;2.33;;;1.97;;
3918;SDS011;1974;48.670;8.994;2023-06-24T01:19:54;2.30;;;1.90;;
3918;SDS011;1974;48.670;8.994;2023-06-24T01:22:39;4.33;;;2.20;;
3918;SDS011;1974;48.670;8.994;2023-06-24T01:25:32;2.50;;;1.50;;
3918;SDS011;1974;48.670;8.994;2023-06-24T01:31:23;2.83;;;2.17;;
3918;SDS011;1974;48.670;8.994;2023-06-24T01:34:01;5.73;;;2.70;;
3918;SDS011;1974;48.670;8.994;2023-06-24T01:36:34;2.50;;;1.87;;
3918;SDS011;1974;48.670;8.994;2023-06-24T01:39:04;2.93;;;2.07;;
3918;SDS011;1974;48.670;8.994;2023-06-24T01:41:36;2.90;;;2.43;;
3918;SDS011;1974;48.670;8.994;2023-06-24T01:44:07;5.13;;;2.23;;
3918;SDS011;1974;48.670;8.994;2023-06-24T01:46:40;3.90;;;2.20;;
3918;SDS011;1974;48.670;8.994;2023-06-24T01:49:08;1.97;;;1.67;;
3918;SDS011;1974;48.670;8.994;2023-06-24T01:51:39;1.70;;;1.40;;
3918;SDS011;1974;48.670;8.994;2023-06-24T01:54:11;4.23;;;1.93;;
3918;SDS011;1974;48.670;8.994;2023-06-24T01:56:44;2.60;;;2.00;;
3918;SDS011;1974;48.670;8.994;2023-06-24T01:59:13;1.90;;;1.70;;
3918;SDS011;1974;48.670;8.994;2023-06-24T02:01:44;1.50;;;1.40;;
3918;SDS011;1974;48.670;8.994;2023-06-24T02:04:11;4.23;;;2.13;;
3918;SDS011;1974;48.670;8.994;2023-06-24T02:06:39;3.27;;;2.03;;
3918;SDS011;1974;48.670;8.994;2023-06-24T02:09:07;3.30;;;2.20;;
3918;SDS011;1974;48.670;8.994;2023-06-24T02:11:35;2.03;;;1.27;;
3918;SDS011;1974;48.670;8.994;2023-06-24T02:14:04;2.83;;;1.90;;
3918;SDS011;1974;48.670;8.994;2023-06-24T02:16:33;1.67;;;1.57;;
3918;SDS011;1974;48.670;8.994;2023-06-24T02:19:02;2.50;;;1.70;;
3918;SDS011;1974;48.670;8.994;2023-06-24T02:21:30;1.50;;;1.40;;
3918;SDS011;1974;48.670;8.994;2023-06-24T02:23:57;2.03;;;1.60;;
3918;SDS011;1974;48.670;8.994;2023-06-24T02:26:25;2.30;;;1.90;;
3918;SDS011;1974;48.670;8.994;2023-06-24T02:28:52;2.83;;;1.50;;
3918;SDS011;1974;48.670;8.994;2023-06-24T02:31:20;2.70;;;1.87;;
3918;SDS011;1974;48.670;8.994;2023-06-24T02:33:47;3.13;;;1.70;;
3918;SDS011;1974;48.670;8.994;2023-06-24T02:36:15;1.70;;;1.50;;
3918;SDS011;1974;48.670;8.994;2023-06-24T02:38:42;2.30;;;1.97;;
3918;SDS011;1974;48.670;8.994;2023-06-24T02:41:09;2.80;;;2.10;;
3918;SDS011;1974;48.670;8.994;2023-06-24T02:43:36;1.83;;;1.73;;
3918;SDS011;1974;48.670;8.994;2023-06-24T02:46:03;3.93;;;2.10;;
3918;SDS011;1974;48.670;8.994;2023-06-24T02:48:31;2.27;;;1.70;;
3918;SDS011;1974;48.670;8.994;2023-06-24T02:51:00;6.53;;;2.60;;
3918;SDS011;1974;48.670;8.994;2023-06-24T02:53:30;3.23;;;1.90;;
3918;SDS011;1974;48.670;8.994;2023-06-24T02:55:58;2.83;;;2.17;;
3918;SDS011;1974;48.670;8.994;2023-06-24T02:58:25;2.13;;;1.63;;
3918;SDS011;1974;48.670;8.994;2023-06-24T03:00:56;2.33;;;2.13;;
3918;SDS011;1974;48.670;8.994;2023-06-24T03:03:24;2.73;;;2.53;;
3918;SDS011;1974;48.670;8.994;2023-06-24T03:05:52;3.17;;;2.10;;
3918;SDS011;1974;48.670;8.994;2023-06-24T03:08:21;3.97;;;1.73;;
3918;SDS011;1974;48.670;8.994;2023-06-24T03:10:50;2.80;;;1.73;;
3918;SDS011;1974;48.670;8.994;2023-06-24T03:13:17;2.47;;;1.77;;
3918;SDS011;1974;48.670;8.994;2023-06-24T03:15:44;3.20;;;1.70;;
3918;SDS011;1974;48.670;8.994;2023-06-24T03:18:11;4.83;;;2.60;;
3918;SDS011;1974;48.670;8.994;2023-06-24T03:20:37;1.70;;;1.17;;
3918;SDS011;1974;48.670;8.994;2023-06-24T03:23:05;2.50;;;1.70;;
3918;SDS011;1974;48.670;8.994;2023-06-24T03:25:32;2.60;;;2.07;;
3918;SDS011;1974;48.670;8.994;2023-06-24T03:28:00;3.33;;;2.00;;
3918;SDS011;1974;48.670;8.994;2023-06-24T03:30:28;2.50;;;1.97;;
3918;SDS011;1974;48.670;8.994;2023-06-24T03:32:56;3.10;;;2.63;;
3918;SDS011;1974;48.670;8.994;2023-06-24T03:35:23;6.63;;;2.90;;
3918;SDS011;1974;48.670;8.994;2023-06-24T03:37:50;3.40;;;2.23;;
3918;SDS011;1974;48.670;8.994;2023-06-24T03:40:16;1.90;;;1.57;;
3918;SDS011;1974;48.670;8.994;2023-06-24T03:42:43;2.93;;;1.87;;
3918;SDS011;1974;48.670;8.994;2023-06-24T03:45:11;2.50;;;1.80;;
3918;SDS011;1974;48.670;8.994;2023-06-24T03:47:38;7.20;;;2.47;;
3918;SDS011;1974;48.670;8.994;2023-06-24T03:50:05;2.70;;;1.93;;
3918;SDS011;1974;48.670;8.994;2023-06-24T03:52:32;3.50;;;2.53;;
3918;SDS011;1974;48.670;8.994;2023-06-24T03:54:59;2.17;;;1.73;;
3918;SDS011;1974;48.670;8.994;2023-06-24T03:57:29;3.40;;;2.20;;
3918;SDS011;1974;48.670;8.994;2023-06-24T03:59:55;2.50;;;2.07;;
3918;SDS011;1974;48.670;8.994;2023-06-24T04:02:23;3.07;;;1.83;;
3918;SDS011;1974;48.670;8.994;2023-06-24T04:04:51;2.87;;;2.23;;
3918;SDS011;1974;48.670;8.994;2023-06-24T04:07:21;9.33;;;2.53;;
3918;SDS011;1974;48.670;8.994;2023-06-24T04:09:53;2.67;;;1.80;;
3918;SDS011;1974;48.670;8.994;2023-06-24T04:12:21;1.97;;;1.67;;
3918;SDS011;1974;48.670;8.994;2023-06-24T04:14:48;2.60;;;2.13;;
3918;SDS011;1974;48.670;8.994;2023-06-24T04:17:14;3.13;;;2.07;;
3918;SDS011;1974;48.670;8.994;2023-06-24T04:19:42;2.90;;;2.33;;
3918;SDS011;1974;48.670;8.994;2023-06-24T04:22:09;2.23;;;2.03;;
3918;SDS011;1974;48.670;8.994;2023-06-24T04:24:36;5.30;;;3.00;;
3918;SDS011;1974;48.670;8.994;2023-06-24T04:27:03;3.57;;;1.73;;
3918;SDS011;1974;48.670;8.994;2023-06-24T04:29:33;2.07;;;1.77;;
3918;SDS011;1974;48.670;8.994;2023-06-24T04:32:00;2.90;;;2.37;;
3918;SDS011;1974;48.670;8.994;2023-06-24T04:34:27;4.83;;;2.60;;
3918;SDS011;1974;48.670;8.994;2023-06-24T04:36:55;2.10;;;1.90;;
3918;SDS011;1974;48.670;8.994;2023-06-24T04:39:22;3.37;;;2.57;;
3918;SDS011;1974;48.670;8.994;2023-06-24T04:41:48;2.67;;;2.37;;
3918;SDS011;1974;48.670;8.994;2023-06-24T04:44:15;4.40;;;2.50;;
3918;SDS011;1974;48.670;8.994;2023-06-24T04:46:42;2.60;;;1.97;;
3918;SDS011;1974;48.670;8.994;2023-06-24T04:49:09;2.93;;;2.30;;
3918;SDS011;1974;48.670;8.994;2023-06-24T04:51:35;1.73;;;1.63;;
3918;SDS011;1974;48.670;8.994;2023-06-24T04:54:04;2.43;;;1.83;;
3918;SDS011;1974;48.670;8.994;2023-06-24T04:56:31;2.90;;;1.73;;
3918;SDS011;1974;48.670;8.994;2023-06-24T04:58:57;2.27;;;1.70;;
3918;SDS011;1974;48.670;8.994;2023-06-24T05:01:24;6.10;;;2.27;;
3918;SDS011;1974;48.670;8.994;2023-06-24T05:03:51;2.50;;;1.80;;
3918;SDS011;1974;48.670;8.994;2023-06-24T05:06:17;4.03;;;2.50;;
3918;SDS011;1974;48.670;8.994;2023-06-24T05:08:44;3.03;;;2.43;;
3918;SDS011;1974;48.670;8.994;2023-06-24T05:11:12;2.70;;;2.00;;
3918;SDS011;1974;48.670;8.994;2023-06-24T05:13:39;3.13;;;2.80;;
3918;SDS011;1974;48.670;8.994;2023-06-24T05:16:06;4.70;;;3.40;;
3918;SDS011;1974;48.670;8.994;2023-06-24T05:18:33;3.07;;;2.00;;
3918;SDS011;1974;48.670;8.994;2023-06-24T05:21:00;3.47;;;2.10;;
3918;SDS011;1974;48.670;8.994;2023-06-24T05:23:26;3.63;;;2.27;;
3918;SDS011;1974;48.670;8.994;2023-06-24T05:25:53;3.10;;;2.17;;
3918;SDS011;1974;48.670;8.994;2023-06-24T05:28:21;2.10;;;1.90;;
3918;SDS011;1974;48.670;8.994;2023-06-24T05:30:48;5.37;;;2.97;;
3918;SDS011;1974;48.670;8.994;2023-06-24T05:33:15;5.00;;;2.80;;
3918;SDS011;1974;48.670;8.994;2023-06-24T05:35:42;4.67;;;2.90;;
3918;SDS011;1974;48.670;8.994;2023-06-24T05:38:09;4.20;;;2.83;;
3918;SDS011;1974;48.670;8.994;2023-06-24T05:40:36;2.40;;;2.20;;
3918;SDS011;1974;48.670;8.994;2023-06-24T05:43:03;2.67;;;2.43;;
3918;SDS011;1974;48.670;8.994;2023-06-24T05:45:31;4.33;;;2.80;;
3918;SDS011;1974;48.670;8.994;2023-06-24T05:47:58;6.47;;;2.20;;
3918;SDS011;1974;48.670;8.994;2023-06-24T05:50:24;4.77;;;2.30;;
3918;SDS011;1974;48.670;8.994;2023-06-24T05:52:51;3.53;;;2.23;;
3918;SDS011;1974;48.670;8.994;2023-06-24T05:55:18;3.90;;;2.30;;
3918;SDS011;1974;48.670;8.994;2023-06-24T05:57:45;2.73;;;2.17;;
3918;SDS011;1974;48.670;8.994;2023-06-24T06:00:12;4.50;;;2.80;;
3918;SDS011;1974;48.670;8.994;2023-06-24T06:02:40;2.10;;;1.63;;
3918;SDS011;1974;48.670;8.994;2023-06-24T06:05:07;4.07;;;1.60;;
3918;SDS011;1974;48.670;8.994;2023-06-24T06:07:34;2.67;;;2.17;;
3918;SDS011;1974;48.670;8.994;2023-06-24T06:10:03;4.40;;;2.10;;
3918;SDS011;1974;48.670;8.994;2023-06-24T06:12:31;2.17;;;2.07;;
3918;SDS011;1974;48.670;8.994;2023-06-24T06:14:58;3.23;;;2.07;;
3918;SDS011;1974;48.670;8.994;2023-06-24T06:17:24;5.83;;;2.20;;
3918;SDS011;1974;48.670;8.994;2023-06-24T06:19:52;1.60;;;1.50;;
3918;SDS011;1974;48.670;8.994;2023-06-24T06:22:19;3.40;;;2.50;;
3918;SDS011;1974;48.670;8.994;2023-06-24T06:24:46;2.50;;;1.60;;
3918;SDS011;1974;48.670;8.994;2023-06-24T06:27:12;1.87;;;1.60;;
3918;SDS011;1974;48.670;8.994;2023-06-24T06:29:39;1.77;;;1.53;;
3918;SDS011;1974;48.670;8.994;2023-06-24T06:32:07;1.93;;;1.70;;
3918;SDS011;1974;48.670;8.994;2023-06-24T06:34:34;2.30;;;2.10;;
3918;SDS011;1974;48.670;8.994;2023-06-24T06:37:03;2.03;;;1.57;;
3918;SDS011;1974;48.670;8.994;2023-06-24T06:39:30;2.70;;;2.20;;
3918;SDS011;1974;48.670;8.994;2023-06-24T06:41:57;3.47;;;2.17;;
3918;SDS011;1974;48.670;8.994;2023-06-24T06:44:23;2.38;;;2.17;;
3918;SDS011;1974;48.670;8.994;2023-06-24T06:46:50;2.63;;;1.63;;
3918;SDS011;1974;48.670;8.994;2023-06-24T06:49:17;1.70;;;1.60;;
3918;SDS011;1974;48.670;8.994;2023-06-24T06:51:44;3.22;;;1.60;;
3918;SDS011;1974;48.670;8.994;2023-06-24T06:54:12;2.73;;;1.43;;
3918;SDS011;1974;48.670;8.994;2023-06-24T06:56:38;2.42;;;1.67;;
3918;SDS011;1974;48.670;8.994;2023-06-24T06:59:05;1.70;;;1.55;;
3918;SDS011;1974;48.670;8.994;2023-06-24T07:01:32;1.92;;;1.70;;
3918;SDS011;1974;48.670;8.994;2023-06-24T07:03:59;3.67;;;1.67;;
3918;SDS011;1974;48.670;8.994;2023-06-24T07:06:26;1.83;;;1.70;;
3918;SDS011;1974;48.670;8.994;2023-06-24T07:08:53;2.00;;;1.10;;
3918;SDS011;1974;48.670;8.994;2023-06-24T07:11:21;1.67;;;1.57;;
3918;SDS011;1974;48.670;8.994;2023-06-24T07:13:47;2.30;;;1.53;;
3918;SDS011;1974;48.670;8.994;2023-06-24T07:16:16;2.30;;;1.60;;
3918;SDS011;1974;48.670;8.994;2023-06-24T07:18:43;1.23;;;1.07;;
3918;SDS011;1974;48.670;8.994;2023-06-24T07:21:10;1.17;;;1.07;;
3918;SDS011;1974;48.670;8.994;2023-06-24T07:23:36;1.40;;;1.30;;
3918;SDS011;1974;48.670;8.994;2023-06-24T07:26:03;2.80;;;1.30;;
3918;SDS011;1974;48.670;8.994;2023-06-24T07:28:31;1.60;;;1.50;;
3918;SDS011;1974;48.670;8.994;2023-06-24T07:30:58;1.73;;;1.35;;
3918;SDS011;1974;48.670;8.994;2023-06-24T07:33:25;2.35;;;1.42;;
3918;SDS011;1974;48.670;8.994;2023-06-24T07:35:51;1.30;;;1.20;;
3918;SDS011;1974;48.670;8.994;2023-06-24T07:38:18;2.10;;;1.70;;
3918;SDS011;1974;48.670;8.994;2023-06-24T07:40:45;1.83;;;1.30;;
3918;SDS011;1974;48.670;8.994;2023-06-24T07:43:12;1.30;;;0.90;;
3918;SDS011;1974;48.670;8.994;2023-06-24T07:45:40;1.38;;;1.27;;
3918;SDS011;1974;48.670;8.994;2023-06-24T07:48:06;1.73;;;1.30;;
3918;SDS011;1974;48.670;8.994;2023-06-24T07:50:33;1.15;;;1.10;;
3918;SDS011;1974;48.670;8.994;2023-06-24T07:53:01;1.38;;;1.20;;
3918;SDS011;1974;48.670;8.994;2023-06-24T07:55:28;1.60;;;1.42;;
3918;SDS011;1974;48.670;8.994;2023-06-24T07:57:54;1.20;;;1.10;;
3918;SDS011;1974;48.670;8.994;2023-06-24T08:00:23;1.58;;;1.35;;
3918;SDS011;1974;48.670;8.994;2023-06-24T08:02:51;2.42;;;1.50;;
3918;SDS011;1974;48.670;8.994;2023-06-24T08:05:18;1.20;;;1.10;;
3918;SDS011;1974;48.670;8.994;2023-06-24T08:07:45;1.30;;;1.20;;
3918;SDS011;1974;48.670;8.994;2023-06-24T08:10:12;2.92;;;1.48;;
3918;SDS011;1974;48.670;8.994;2023-06-24T08:12:39;2.13;;;1.48;;
3918;SDS011;1974;48.670;8.994;2023-06-24T08:15:06;2.05;;;1.40;;
3918;SDS011;1974;48.670;8.994;2023-06-24T08:17:33;1.67;;;1.40;;
3918;SDS011;1974;48.670;8.994;2023-06-24T08:20:01;2.08;;;1.38;;
3918;SDS011;1974;48.670;8.994;2023-06-24T08:22:29;1.30;;;1.20;;
3918;SDS011;1974;48.670;8.994;2023-06-24T08:24:56;1.58;;;1.48;;
3918;SDS011;1974;48.670;8.994;2023-06-24T08:27:24;1.73;;;1.63;;
3918;SDS011;1974;48.670;8.994;2023-06-24T08:29:50;1.35;;;1.10;;
3918;SDS011;1974;48.670;8.994;2023-06-24T08:32:17;2.95;;;1.30;;
3918;SDS011;1974;48.670;8.994;2023-06-24T08:34:44;1.35;;;1.25;;
3918;SDS011;1974;48.670;8.994;2023-06-24T08:37:13;1.63;;;1.52;;
3918;SDS011;1974;48.670;8.994;2023-06-24T08:39:40;1.15;;;1.05;;
3918;SDS011;1974;48.670;8.994;2023-06-24T08:42:06;1.38;;;1.27;;
3918;SDS011;1974;48.670;8.994;2023-06-24T08:44:33;1.58;;;1.48;;
3918;SDS011;1974;48.670;8.994;2023-06-24T08:47:00;1.70;;;1.30;;
3918;SDS011;1974;48.670;8.994;2023-06-24T08:49:28;0.90;;;0.90;;
3918;SDS011;1974;48.670;8.994;2023-06-24T08:51:59;0.90;;;0.90;;
3918;SDS011;1974;48.670;8.994;2023-06-24T08:54:29;1.33;;;1.20;;
3918;SDS011;1974;48.670;8.994;2023-06-24T08:56:58;1.65;;;1.40;;
3918;SDS011;1974;48.670;8.994;2023-06-24T08:59:26;1.30;;;1.20;;
3918;SDS011;1974;48.670;8.994;2023-06-24T09:01:53;1.38;;;1.27;;
3918;SDS011;1974;48.670;8.994;2023-06-24T09:04:20;0.85;;;0.85;;
3918;SDS011;1974;48.670;8.994;2023-06-24T09:06:46;1.67;;;1.27;;
3918;SDS011;1974;48.670;8.994;2023-06-24T09:09:17;2.38;;;1.30;;
3918;SDS011;1974;48.670;8.994;2023-06-24T09:11:52;4.10;;;1.00;;
3918;SDS011;1974;48.670;8.994;2023-06-24T09:14:19;1.02;;;0.88;;
3918;SDS011;1974;48.670;8.994;2023-06-24T09:16:50;0.98;;;0.90;;
3918;SDS011;1974;48.670;8.994;2023-06-24T09:19:19;1.25;;;0.80;;
3918;SDS011;1974;48.670;8.994;2023-06-24T09:21:47;1.30;;;1.20;;
3918;SDS011;1974;48.670;8.994;2023-06-24T09:24:14;1.88;;;1.10;;
3918;SDS011;1974;48.670;8.994;2023-06-24T09:26:42;1.75;;;1.00;;
3918;SDS011;1974;48.670;8.994;2023-06-24T09:29:12;1.13;;;1.02;;
3918;SDS011;1974;48.670;8.994;2023-06-24T09:31:45;1.50;;;0.90;;
3918;SDS011;1974;48.670;8.994;2023-06-24T09:34:13;1.38;;;1.27;;
3918;SDS011;1974;48.670;8.994;2023-06-24T09:36:41;1.02;;;0.88;;
3918;SDS011;1974;48.670;8.994;2023-06-24T09:39:09;1.73;;;1.45;;
3918;SDS011;1974;48.670;8.994;2023-06-24T09:41:36;1.67;;;1.33;;
3918;SDS011;1974;48.670;8.994;2023-06-24T09:44:07;0.90;;;0.90;;
3918;SDS011;1974;48.670;8.994;2023-06-24T09:46:38;1.10;;;1.00;;
3918;SDS011;1974;48.670;8.994;2023-06-24T09:49:04;1.25;;;1.20;;
3918;SDS011;1974;48.670;8.994;2023-06-24T09:51:32;1.35;;;1.17;;
3918;SDS011;1974;48.670;8.994;2023-06-24T09:54:02;1.40;;;1.20;;
3918;SDS011;1974;48.670;8.994;2023-06-24T09:56:32;1.27;;;1.17;;
3918;SDS011;1974;48.670;8.994;2023-06-24T09:59:02;2.53;;;0.95;;
3918;SDS011;1974;48.670;8.994;2023-06-24T10:01:31;1.27;;;1.08;;
3918;SDS011;1974;48.670;8.994;2023-06-24T10:03:59;1.00;;;1.00;;
3918;SDS011;1974;48.670;8.994;2023-06-24T10:06:27;1.63;;;1.17;;
3918;SDS011;1974;48.670;8.994;2023-06-24T10:08:54;1.85;;;1.10;;
3918;SDS011;1974;48.670;8.994;2023-06-24T10:11:21;1.20;;;1.10;;
3918;SDS011;1974;48.670;8.994;2023-06-24T10:13:48;1.35;;;0.90;;
3918;SDS011;1974;48.670;8.994;2023-06-24T10:16:15;2.28;;;1.75;;
3918;SDS011;1974;48.670;8.994;2023-06-24T10:18:43;3.47;;;1.40;;
3918;SDS011;1974;48.670;8.994;2023-06-24T10:21:12;1.90;;;0.95;;
3918;SDS011;1974;48.670;8.994;2023-06-24T10:23:41;1.02;;;0.88;;
3918;SDS011;1974;48.670;8.994;2023-06-24T10:26:21;1.17;;;1.17;;
3918;SDS011;1974;48.670;8.994;2023-06-24T10:29:08;1.63;;;1.48;;
3918;SDS011;1974;48.670;8.994;2023-06-24T10:34:30;1.25;;;1.15;;
3918;SDS011;1974;48.670;8.994;2023-06-24T10:37:00;1.40;;;1.30;;
3918;SDS011;1974;48.670;8.994;2023-06-24T10:39:35;1.05;;;1.00;;
3918;SDS011;1974;48.670;8.994;2023-06-24T10:44:58;1.08;;;1.00;;
3918;SDS011;1974;48.670;8.994;2023-06-24T10:47:27;1.33;;;1.23;;
3918;SDS011;1974;48.670;8.994;2023-06-24T10:49:55;1.50;;;1.40;;
3918;SDS011;1974;48.670;8.994;2023-06-24T10:52:23;2.00;;;1.25;;
3918;SDS011;1974;48.670;8.994;2023-06-24T10:54:50;1.92;;;1.38;;
3918;SDS011;1974;48.670;8.994;2023-06-24T10:57:21;0.90;;;0.90;;
3918;SDS011;1974;48.670;8.994;2023-06-24T10:59:49;1.20;;;1.10;;
3918;SDS011;1974;48.670;8.994;2023-06-24T11:02:18;1.20;;;1.10;;
3918;SDS011;1974;48.670;8.994;2023-06-24T11:04:46;1.05;;;0.95;;
3918;SDS011;1974;48.670;8.994;2023-06-24T11:07:14;1.20;;;1.13;;
3918;SDS011;1974;48.670;8.994;2023-06-24T11:09:49;0.90;;;0.90;;
3918;SDS011;1974;48.670;8.994;2023-06-24T11:12:16;1.10;;;0.85;;
3918;SDS011;1974;48.670;8.994;2023-06-24T11:14:43;0.70;;;0.70;;
3918;SDS011;1974;48.670;8.994;2023-06-24T11:17:10;1.52;;;1.42;;
3918;SDS011;1974;48.670;8.994;2023-06-24T11:19:38;4.47;;;1.00;;
3918;SDS011;1974;48.670;8.994;2023-06-24T11:22:06;1.25;;;1.00;;
3918;SDS011;1974;48.670;8.994;2023-06-24T11:24:33;1.42;;;1.08;;
3918;SDS011;1974;48.670;8.994;2023-06-24T11:27:03;2.20;;;1.00;;
3918;SDS011;1974;48.670;8.994;2023-06-24T11:29:30;1.13;;;0.98;;
3918;SDS011;1974;48.670;8.994;2023-06-24T11:31:58;1.27;;;1.00;;
3918;SDS011;1974;48.670;8.994;2023-06-24T11:34:26;1.27;;;1.17;;
3918;SDS011;1974;48.670;8.994;2023-06-24T11:36:53;1.55;;;1.08;;
3918;SDS011;1974;48.670;8.994;2023-06-24T11:39:20;1.27;;;1.05;;
3918;SDS011;1974;48.670;8.994;2023-06-24T11:41:48;1.27;;;0.98;;
3918;SDS011;1974;48.670;8.994;2023-06-24T11:44:18;1.35;;;1.10;;
3918;SDS011;1974;48.670;8.994;2023-06-24T11:46:45;1.20;;;1.08;;
3918;SDS011;1974;48.670;8.994;2023-06-24T11:49:12;1.23;;;1.13;;
3918;SDS011;1974;48.670;8.994;2023-06-24T11:51:44;2.25;;;1.00;;
3918;SDS011;1974;48.670;8.994;2023-06-24T11:54:13;1.30;;;1.20;;
3918;SDS011;1974;48.670;8.994;2023-06-24T11:56:41;0.82;;;0.82;;
3918;SDS011;1974;48.670;8.994;2023-06-24T11:59:15;1.02;;;0.90;;
3918;SDS011;1974;48.670;8.994;2023-06-24T12:01:44;1.75;;;1.25;;
3918;SDS011;1974;48.670;8.994;2023-06-24T12:04:11;1.45;;;1.35;;
3918;SDS011;1974;48.670;8.994;2023-06-24T12:06:39;0.80;;;0.75;;
3918;SDS011;1974;48.670;8.994;2023-06-24T12:09:06;2.13;;;1.25;;
3918;SDS011;1974;48.670;8.994;2023-06-24T12:11:33;1.80;;;1.20;;
3918;SDS011;1974;48.670;8.994;2023-06-24T12:13:59;1.13;;;1.13;;
3918;SDS011;1974;48.670;8.994;2023-06-24T12:16:26;1.50;;;0.93;;
3918;SDS011;1974;48.670;8.994;2023-06-24T12:18:54;1.45;;;1.35;;
3918;SDS011;1974;48.670;8.994;2023-06-24T12:21:21;1.08;;;1.00;;
3918;SDS011;1974;48.670;8.994;2023-06-24T12:23:49;1.02;;;0.90;;
3918;SDS011;1974;48.670;8.994;2023-06-24T12:26:16;1.00;;;0.90;;
3918;SDS011;1974;48.670;8.994;2023-06-24T12:28:43;1.17;;;1.17;;
3918;SDS011;1974;48.670;8.994;2023-06-24T12:31:10;1.30;;;1.20;;
3918;SDS011;1974;48.670;8.994;2023-06-24T12:33:37;1.20;;;1.00;;
3918;SDS011;1974;48.670;8.994;2023-06-24T12:36:05;0.82;;;0.82;;
3918;SDS011;1974;48.670;8.994;2023-06-24T12:38:32;1.20;;;1.10;;
3918;SDS011;1974;48.670;8.994;2023-06-24T12:41:00;1.20;;;1.10;;
3918;SDS011;1974;48.670;8.994;2023-06-24T12:43:27;1.85;;;1.33;;
3918;SDS011;1974;48.670;8.994;2023-06-24T12:45:54;1.13;;;1.00;;
3918;SDS011;1974;48.670;8.994;2023-06-24T12:48:21;1.00;;;1.00;;
3918;SDS011;1974;48.670;8.994;2023-06-24T12:50:47;1.00;;;1.00;;
3918;SDS011;1974;48.670;8.994;2023-06-24T12:53:19;1.20;;;1.08;;
3918;SDS011;1974;48.670;8.994;2023-06-24T12:55:46;1.30;;;1.20;;
3918;SDS011;1974;48.670;8.994;2023-06-24T12:58:13;1.40;;;1.30;;
3918;SDS011;1974;48.670;8.994;2023-06-24T13:00:40;1.83;;;1.10;;
3918;SDS011;1974;48.670;8.994;2023-06-24T13:03:07;1.23;;;0.90;;
3918;SDS011;1974;48.670;8.994;2023-06-24T13:05:34;1.25;;;1.00;;
3918;SDS011;1974;48.670;8.994;2023-06-24T13:08:00;1.30;;;1.05;;
3918;SDS011;1974;48.670;8.994;2023-06-24T13:10:29;3.55;;;1.20;;
3918;SDS011;1974;48.670;8.994;2023-06-24T13:12:55;1.20;;;1.00;;
3918;SDS011;1974;48.670;8.994;2023-06-24T13:15:22;2.75;;;1.20;;
3918;SDS011;1974;48.670;8.994;2023-06-24T13:17:49;1.88;;;1.45;;
3918;SDS011;1974;48.670;8.994;2023-06-24T13:20:16;1.25;;;1.15;;
3918;SDS011;1974;48.670;8.994;2023-06-24T13:22:43;1.75;;;1.10;;
3918;SDS011;1974;48.670;8.994;2023-06-24T13:25:09;4.70;;;1.70;;
3918;SDS011;1974;48.670;8.994;2023-06-24T13:27:37;1.63;;;1.50;;
3918;SDS011;1974;48.670;8.994;2023-06-24T13:30:05;1.48;;;1.38;;
3918;SDS011;1974;48.670;8.994;2023-06-24T13:32:32;1.55;;;1.38;;
3918;SDS011;1974;48.670;8.994;2023-06-24T13:34:59;1.02;;;0.93;;
3918;SDS011;1974;48.670;8.994;2023-06-24T13:37:26;1.70;;;1.58;;
3918;SDS011;1974;48.670;8.994;2023-06-24T13:39:53;1.60;;;1.27;;
3918;SDS011;1974;48.670;8.994;2023-06-24T13:42:19;0.95;;;0.82;;
3918;SDS011;1974;48.670;8.994;2023-06-24T13:44:47;2.15;;;1.50;;
3918;SDS011;1974;48.670;8.994;2023-06-24T13:47:14;1.25;;;1.15;;
3918;SDS011;1974;48.670;8.994;2023-06-24T13:49:41;1.08;;;0.90;;
3918;SDS011;1974;48.670;8.994;2023-06-24T13:52:07;1.20;;;1.10;;
3918;SDS011;1974;48.670;8.994;2023-06-24T13:54:34;1.30;;;1.15;;
3918;SDS011;1974;48.670;8.994;2023-06-24T13:57:01;1.45;;;1.00;;
3918;SDS011;1974;48.670;8.994;2023-06-24T13:59:28;1.10;;;1.00;;
3918;SDS011;1974;48.670;8.994;2023-06-24T14:01:56;1.95;;;1.13;;
3918;SDS011;1974;48.670;8.994;2023-06-24T14:04:23;1.90;;;1.67;;
3918;SDS011;1974;48.670;8.994;2023-06-24T14:06:50;2.75;;;1.75;;
3918;SDS011;1974;48.670;8.994;2023-06-24T14:09:18;2.10;;;1.27;;
3918;SDS011;1974;48.670;8.994;2023-06-24T14:11:45;1.38;;;1.10;;
3918;SDS011;1974;48.670;8.994;2023-06-24T14:14:12;1.20;;;1.15;;
3918;SDS011;1974;48.670;8.994;2023-06-24T14:16:38;1.75;;;1.20;;
3918;SDS011;1974;48.670;8.994;2023-06-24T14:19:06;1.20;;;1.20;;
3918;SDS011;1974;48.670;8.994;2023-06-24T14:21:33;1.48;;;1.38;;
3918;SDS011;1974;48.670;8.994;2023-06-24T14:24:02;1.52;;;1.42;;
3918;SDS011;1974;48.670;8.994;2023-06-24T14:26:30;2.00;;;1.08;;
3918;SDS011;1974;48.670;8.994;2023-06-24T14:28:56;1.25;;;0.98;;
3918;SDS011;1974;48.670;8.994;2023-06-24T14:31:23;2.65;;;1.33;;
3918;SDS011;1974;48.670;8.994;2023-06-24T14:33:50;3.15;;;1.60;;
3918;SDS011;1974;48.670;8.994;2023-06-24T14:36:18;1.88;;;1.45;;
3918;SDS011;1974;48.670;8.994;2023-06-24T14:38:45;1.90;;;1.73;;
3918;SDS011;1974;48.670;8.994;2023-06-24T14:41:12;1.33;;;1.17;;
3918;SDS011;1974;48.670;8.994;2023-06-24T14:43:38;1.10;;;0.95;;
3918;SDS011;1974;48.670;8.994;2023-06-24T14:46:05;1.00;;;1.00;;
3918;SDS011;1974;48.670;8.994;2023-06-24T14:48:32;2.05;;;1.13;;
3918;SDS011;1974;48.670;8.994;2023-06-24T14:50:59;1.38;;;1.27;;
3918;SDS011;1974;48.670;8.994;2023-06-24T14:53:27;1.92;;;1.60;;
3918;SDS011;1974;48.670;8.994;2023-06-24T14:55:53;1.15;;;1.13;;
3918;SDS011;1974;48.670;8.994;2023-06-24T14:58:20;1.65;;;1.30;;
3918;SDS011;1974;48.670;8.994;2023-06-24T15:00:47;1.65;;;1.55;;
3918;SDS011;1974;48.670;8.994;2023-06-24T15:03:13;1.27;;;1.17;;
3918;SDS011;1974;48.670;8.994;2023-06-24T15:05:40;1.95;;;1.23;;
3918;SDS011;1974;48.670;8.994;2023-06-24T15:08:07;1.38;;;1.27;;
3918;SDS011;1974;48.670;8.994;2023-06-24T15:10:35;1.30;;;1.20;;
3918;SDS011;1974;48.670;8.994;2023-06-24T15:13:02;1.08;;;0.98;;
3918;SDS011;1974;48.670;8.994;2023-06-24T15:15:30;2.70;;;1.10;;
3918;SDS011;1974;48.670;8.994;2023-06-24T15:17:57;1.65;;;1.50;;
3918;SDS011;1974;48.670;8.994;2023-06-24T15:20:25;1.05;;;1.05;;
3918;SDS011;1974;48.670;8.994;2023-06-24T15:22:52;2.08;;;1.40;;
3918;SDS011;1974;48.670;8.994;2023-06-24T15:25:18;1.15;;;1.05;;
3918;SDS011;1974;48.670;8.994;2023-06-24T15:27:46;2.17;;;1.15;;